sensor_id;sensor_type;location;lat;lon;timestamp;P1;durP1;ratioP1;P2;durP2;ratioP2
35757;SDS011;21879;50.110;18.900;2023-03-19T00:07:51;79.80;;;50.20;;
35757;SDS011;21879;50.110;18.900;2023-03-19T00:18:17;71.00;;;43.90;;
35757;SDS011;21879;50.110;18.900;2023-03-19T00:28:43;48.90;;;31.00;;
35757;SDS011;21879;50.110;18.900;2023-03-19T00:39:09;51.40;;;31.80;;
35757;SDS011;21879;50.110;18.900;2023-03-19T00:49:35;42.00;;;26.70;;
35757;SDS011;21879;50.110;18.900;2023-03-19T01:00:01;54.20;;;35.50;;
35757;SDS011;21879;50.110;18.900;2023-03-19T01:10:28;59.30;;;37.00;;
35757;SDS011;21879;50.110;18.900;2023-03-19T01:20:56;42.50;;;25.70;;
35757;SDS011;21879;50.110;18.900;2023-03-19T01:31:22;43.30;;;22.20;;
35757;SDS011;21879;50.110;18.900;2023-03-19T01:41:48;34.40;;;20.30;;
35757;SDS011;21879;50.110;18.900;2023-03-19T01:52:14;34.80;;;21.30;;
35757;SDS011;21879;50.110;18.900;2023-03-19T02:02:40;34.60;;;21.60;;
35757;SDS011;21879;50.110;18.900;2023-03-19T02:13:07;31.60;;;20.70;;
35757;SDS011;21879;50.110;18.900;2023-03-19T02:23:34;27.60;;;15.00;;
35757;SDS011;21879;50.110;18.900;2023-03-19T02:34:31;26.80;;;16.80;;
35757;SDS011;21879;50.110;18.900;2023-03-19T02:44:58;32.10;;;17.10;;
35757;SDS011;21879;50.110;18.900;2023-03-19T02:55:24;32.60;;;18.00;;
35757;SDS011;21879;50.110;18.900;2023-03-19T03:05:49;31.20;;;16.50;;
35757;SDS011;21879;50.110;18.900;2023-03-19T03:16:15;32.40;;;19.00;;
35757;SDS011;21879;50.110;18.900;2023-03-19T03:26:41;31.50;;;17.10;;
35757;SDS011;21879;50.110;18.900;2023-03-19T03:37:07;28.50;;;16.20;;
35757;SDS011;21879;50.110;18.900;2023-03-19T03:47:32;25.20;;;16.00;;
35757;SDS011;21879;50.110;18.900;2023-03-19T03:57:59;27.60;;;13.60;;
35757;SDS011;21879;50.110;18.900;2023-03-19T04:08:26;29.40;;;17.80;;
35757;SDS011;21879;50.110;18.900;2023-03-19T04:18:52;28.10;;;16.30;;
35757;SDS011;21879;50.110;18.900;2023-03-19T04:29:18;26.00;;;14.40;;
35757;SDS011;21879;50.110;18.900;2023-03-19T04:39:44;23.30;;;15.70;;
35757;SDS011;21879;50.110;18.900;2023-03-19T04:50:10;18.70;;;13.90;;
35757;SDS011;21879;50.110;18.900;2023-03-19T05:00:36;20.80;;;13.10;;
35757;SDS011;21879;50.110;18.900;2023-03-19T05:11:02;26.00;;;14.00;;
35757;SDS011;21879;50.110;18.900;2023-03-19T05:21:27;22.60;;;13.70;;
35757;SDS011;21879;50.110;18.900;2023-03-19T05:31:53;21.60;;;12.20;;
35757;SDS011;21879;50.110;18.900;2023-03-19T05:42:19;21.00;;;11.60;;
35757;SDS011;21879;50.110;18.900;2023-03-19T05:52:45;24.30;;;14.20;;
35757;SDS011;21879;50.110;18.900;2023-03-19T06:03:11;23.60;;;13.20;;
35757;SDS011;21879;50.110;18.900;2023-03-19T06:13:37;31.70;;;18.80;;
35757;SDS011;21879;50.110;18.900;2023-03-19T06:24:03;26.50;;;15.80;;
35757;SDS011;21879;50.110;18.900;2023-03-19T06:34:29;33.60;;;16.60;;
35757;SDS011;21879;50.110;18.900;2023-03-19T06:44:55;30.60;;;17.10;;
35757;SDS011;21879;50.110;18.900;2023-03-19T06:55:20;35.00;;;20.20;;
35757;SDS011;21879;50.110;18.900;2023-03-19T07:05:47;39.90;;;27.90;;
35757;SDS011;21879;50.110;18.900;2023-03-19T07:16:14;40.10;;;26.10;;
35757;SDS011;21879;50.110;18.900;2023-03-19T07:26:40;28.20;;;19.30;;
35757;SDS011;21879;50.110;18.900;2023-03-19T07:37:06;24.50;;;16.40;;
35757;SDS011;21879;50.110;18.900;2023-03-19T07:47:33;21.10;;;15.30;;
35757;SDS011;21879;50.110;18.900;2023-03-19T07:57:58;17.50;;;11.90;;
35757;SDS011;21879;50.110;18.900;2023-03-19T08:08:24;18.80;;;13.70;;
35757;SDS011;21879;50.110;18.900;2023-03-19T08:18:49;16.00;;;10.50;;
35757;SDS011;21879;50.110;18.900;2023-03-19T08:29:18;7.50;;;6.00;;
35757;SDS011;21879;50.110;18.900;2023-03-19T08:39:44;7.80;;;5.50;;
35757;SDS011;21879;50.110;18.900;2023-03-19T08:50:13;8.10;;;5.60;;
35757;SDS011;21879;50.110;18.900;2023-03-19T09:00:39;8.30;;;6.00;;
35757;SDS011;21879;50.110;18.900;2023-03-19T09:11:05;9.40;;;6.20;;
35757;SDS011;21879;50.110;18.900;2023-03-19T09:21:32;11.60;;;8.00;;
35757;SDS011;21879;50.110;18.900;2023-03-19T09:31:59;10.30;;;6.10;;
35757;SDS011;21879;50.110;18.900;2023-03-19T09:42:29;9.70;;;5.80;;
35757;SDS011;21879;50.110;18.900;2023-03-19T09:53:04;10.40;;;5.80;;
35757;SDS011;21879;50.110;18.900;2023-03-19T10:03:43;6.50;;;4.80;;
35757;SDS011;21879;50.110;18.900;2023-03-19T10:14:26;6.70;;;4.50;;
35757;SDS011;21879;50.110;18.900;2023-03-19T10:25:10;7.50;;;5.00;;
35757;SDS011;21879;50.110;18.900;2023-03-19T10:35:42;7.40;;;4.20;;
35757;SDS011;21879;50.110;18.900;2023-03-19T10:46:12;9.10;;;6.10;;
35757;SDS011;21879;50.110;18.900;2023-03-19T10:56:38;9.10;;;6.70;;
35757;SDS011;21879;50.110;18.900;2023-03-19T11:07:10;14.10;;;9.60;;
35757;SDS011;21879;50.110;18.900;2023-03-19T11:17:44;7.50;;;5.40;;
35757;SDS011;21879;50.110;18.900;2023-03-19T11:28:12;6.70;;;4.70;;
35757;SDS011;21879;50.110;18.900;2023-03-19T11:38:46;7.30;;;4.80;;
35757;SDS011;21879;50.110;18.900;2023-03-19T11:49:32;8.20;;;5.50;;
35757;SDS011;21879;50.110;18.900;2023-03-19T12:00:08;7.50;;;4.90;;
35757;SDS011;21879;50.110;18.900;2023-03-19T12:10:57;7.50;;;4.70;;
35757;SDS011;21879;50.110;18.900;2023-03-19T12:21:35;8.10;;;5.50;;
35757;SDS011;21879;50.110;18.900;2023-03-19T12:32:22;8.30;;;5.00;;
35757;SDS011;21879;50.110;18.900;2023-03-19T12:43:01;8.70;;;5.80;;
35757;SDS011;21879;50.110;18.900;2023-03-19T12:53:33;11.10;;;6.10;;
35757;SDS011;21879;50.110;18.900;2023-03-19T13:04:07;8.80;;;5.40;;
35757;SDS011;21879;50.110;18.900;2023-03-19T13:14:40;10.60;;;7.50;;
35757;SDS011;21879;50.110;18.900;2023-03-19T13:25:14;64.70;;;39.30;;
35757;SDS011;21879;50.110;18.900;2023-03-19T13:35:44;16.50;;;9.80;;
35757;SDS011;21879;50.110;18.900;2023-03-19T13:57:18;7.00;;;4.90;;
35757;SDS011;21879;50.110;18.900;2023-03-19T14:07:58;9.80;;;7.50;;
35757;SDS011;21879;50.110;18.900;2023-03-19T14:18:24;9.40;;;6.10;;
35757;SDS011;21879;50.110;18.900;2023-03-19T14:28:55;7.10;;;5.40;;
35757;SDS011;21879;50.110;18.900;2023-03-19T14:39:25;7.90;;;5.60;;
35757;SDS011;21879;50.110;18.900;2023-03-19T14:49:58;7.90;;;6.10;;
35757;SDS011;21879;50.110;18.900;2023-03-19T15:00:43;8.60;;;5.30;;
35757;SDS011;21879;50.110;18.900;2023-03-19T15:11:19;7.30;;;5.50;;
35757;SDS011;21879;50.110;18.900;2023-03-19T15:22:03;10.20;;;6.20;;
35757;SDS011;21879;50.110;18.900;2023-03-19T15:32:35;7.30;;;5.40;;
35757;SDS011;21879;50.110;18.900;2023-03-19T15:43:24;8.40;;;5.00;;
35757;SDS011;21879;50.110;18.900;2023-03-19T15:53:50;7.00;;;4.70;;
35757;SDS011;21879;50.110;18.900;2023-03-19T16:04:18;8.00;;;5.40;;
35757;SDS011;21879;50.110;18.900;2023-03-19T16:14:48;7.70;;;5.00;;
35757;SDS011;21879;50.110;18.900;2023-03-19T16:25:15;8.60;;;4.40;;
35757;SDS011;21879;50.110;18.900;2023-03-19T16:35:42;7.60;;;4.60;;
35757;SDS011;21879;50.110;18.900;2023-03-19T16:46:09;6.60;;;4.80;;
35757;SDS011;21879;50.110;18.900;2023-03-19T16:56:38;6.00;;;4.30;;
35757;SDS011;21879;50.110;18.900;2023-03-19T17:07:04;8.70;;;5.90;;
35757;SDS011;21879;50.110;18.900;2023-03-19T17:17:30;8.10;;;4.80;;
35757;SDS011;21879;50.110;18.900;2023-03-19T17:27:56;7.60;;;5.30;;
35757;SDS011;21879;50.110;18.900;2023-03-19T17:38:22;6.60;;;4.60;;
35757;SDS011;21879;50.110;18.900;2023-03-19T17:48:58;6.60;;;4.50;;
35757;SDS011;21879;50.110;18.900;2023-03-19T17:59:23;11.50;;;6.80;;
35757;SDS011;21879;50.110;18.900;2023-03-19T18:09:50;10.00;;;7.60;;
35757;SDS011;21879;50.110;18.900;2023-03-19T18:20:17;9.80;;;5.60;;
35757;SDS011;21879;50.110;18.900;2023-03-19T18:30:44;14.00;;;8.50;;
35757;SDS011;21879;50.110;18.900;2023-03-19T18:41:12;15.70;;;10.00;;
35757;SDS011;21879;50.110;18.900;2023-03-19T18:51:41;23.10;;;14.30;;
35757;SDS011;21879;50.110;18.900;2023-03-19T19:02:27;27.20;;;20.50;;
35757;SDS011;21879;50.110;18.900;2023-03-19T19:12:57;20.40;;;13.80;;
35757;SDS011;21879;50.110;18.900;2023-03-19T19:23:24;24.40;;;13.50;;
35757;SDS011;21879;50.110;18.900;2023-03-19T19:33:51;23.10;;;13.80;;
35757;SDS011;21879;50.110;18.900;2023-03-19T19:44:18;27.10;;;15.60;;
35757;SDS011;21879;50.110;18.900;2023-03-19T19:54:45;29.50;;;18.60;;
35757;SDS011;21879;50.110;18.900;2023-03-19T20:15:43;32.60;;;20.00;;
35757;SDS011;21879;50.110;18.900;2023-03-19T20:26:10;42.30;;;24.00;;
35757;SDS011;21879;50.110;18.900;2023-03-19T20:36:38;38.20;;;25.00;;
35757;SDS011;21879;50.110;18.900;2023-03-19T20:47:04;40.70;;;26.20;;
35757;SDS011;21879;50.110;18.900;2023-03-19T20:57:39;46.50;;;28.70;;
35757;SDS011;21879;50.110;18.900;2023-03-19T21:08:10;52.30;;;33.20;;
35757;SDS011;21879;50.110;18.900;2023-03-19T21:18:41;58.90;;;40.30;;
35757;SDS011;21879;50.110;18.900;2023-03-19T21:29:09;69.70;;;44.20;;
35757;SDS011;21879;50.110;18.900;2023-03-19T21:39:38;56.90;;;37.60;;
35757;SDS011;21879;50.110;18.900;2023-03-19T21:50:05;58.00;;;35.90;;
35757;SDS011;21879;50.110;18.900;2023-03-19T22:00:37;67.80;;;42.30;;
35757;SDS011;21879;50.110;18.900;2023-03-19T22:11:04;68.30;;;40.80;;
35757;SDS011;21879;50.110;18.900;2023-03-19T22:21:37;67.00;;;45.10;;
35757;SDS011;21879;50.110;18.900;2023-03-19T22:32:05;67.10;;;41.50;;
35757;SDS011;21879;50.110;18.900;2023-03-19T22:42:37;65.00;;;42.40;;
35757;SDS011;21879;50.110;18.900;2023-03-19T22:53:05;56.80;;;38.40;;
35757;SDS011;21879;50.110;18.900;2023-03-19T23:03:42;60.50;;;40.50;;
35757;SDS011;21879;50.110;18.900;2023-03-19T23:14:08;67.70;;;44.30;;
35757;SDS011;21879;50.110;18.900;2023-03-19T23:24:50;59.90;;;38.50;;
35757;SDS011;21879;50.110;18.900;2023-03-19T23:35:18;74.40;;;46.00;;
35757;SDS011;21879;50.110;18.900;2023-03-19T23:56:13;64.20;;;41.10;;
